Time;durP1;ratioP1;P1;durP2;ratioP2;P2;SDS_P1;SDS_P2;PMS_P1;PMS_P2;Temp;Humidity;BMP_temperature;BMP_pressure;BME280_temperature;BME280_humidity;BME280_pressure;Samples;Min_cycle;Max_cycle;Signal;HPM_P1;HPM_P2
2023/08/10 00:01:56;;;;;;;2.23;1.73;;;24.50;56.90;;;;;;4990041;28;20198;-45
2023/08/10 00:04:22;;;;;;;1.77;1.60;;;24.50;56.70;;;;;;4986754;28;20245;-46
2023/08/10 00:06:47;;;;;;;3.73;2.30;;;24.50;56.70;;;;;;4979117;28;20373;-46
2023/08/10 00:09:13;;;;;;;6.10;2.37;;;24.50;56.50;;;;;;4986568;28;20195;-45
2023/08/10 00:11:39;;;;;;;2.10;2.00;;;24.50;56.20;;;;;;4992103;28;20198;-45
2023/08/10 00:14:04;;;;;;;2.10;1.90;;;24.60;56.30;;;;;;4986242;28;20195;-49
2023/08/10 00:16:30;;;;;;;2.93;2.40;;;24.50;55.70;;;;;;4980836;28;20285;-45
2023/08/10 00:18:56;;;;;;;1.93;1.60;;;24.50;56.10;;;;;;4980740;28;20212;-46
2023/08/10 00:21:22;;;;;;;2.53;1.93;;;24.50;56.50;;;;;;4983306;28;20433;-46
2023/08/10 00:23:47;;;;;;;1.80;1.70;;;24.50;56.10;;;;;;4985065;28;20240;-45
2023/08/10 00:26:13;;;;;;;2.80;1.97;;;24.40;56.30;;;;;;4985536;28;20226;-45
2023/08/10 00:28:38;;;;;;;3.70;1.40;;;24.40;56.40;;;;;;4984868;28;20239;-49
2023/08/10 00:31:04;;;;;;;2.07;1.87;;;24.40;56.30;;;;;;4984422;28;20248;-47
2023/08/10 00:33:30;;;;;;;1.70;1.60;;;24.40;56.20;;;;;;4982963;28;20693;-49
2023/08/10 00:35:56;;;;;;;2.07;1.97;;;24.40;56.20;;;;;;4982505;28;20197;-50
2023/08/10 00:38:21;;;;;;;2.53;2.30;;;24.40;55.90;;;;;;4983575;28;20223;-49
2023/08/10 00:40:47;;;;;;;2.00;1.90;;;24.40;55.60;;;;;;4984400;28;20191;-51
2023/08/10 00:43:13;;;;;;;1.90;1.77;;;24.40;55.00;;;;;;4985453;28;20202;-49
2023/08/10 00:45:39;;;;;;;3.97;2.37;;;24.30;54.50;;;;;;4983912;28;20234;-50
2023/08/10 00:48:05;;;;;;;1.60;1.50;;;24.20;54.60;;;;;;4992292;28;20606;-50
2023/08/10 00:50:31;;;;;;;2.40;2.20;;;24.10;55.50;;;;;;4993047;28;20520;-48
2023/08/10 00:52:56;;;;;;;2.10;2.00;;;24.00;55.90;;;;;;4991464;28;20481;-51
2023/08/10 00:55:22;;;;;;;1.90;1.70;;;24.00;55.90;;;;;;4990667;28;20449;-48
2023/08/10 00:57:48;;;;;;;2.40;1.57;;;24.10;56.10;;;;;;4993962;28;20191;-49
2023/08/10 01:00:14;;;;;;;2.20;1.97;;;24.10;56.10;;;;;;4992398;28;20222;-50
2023/08/10 01:02:40;;;;;;;2.90;2.10;;;24.10;55.80;;;;;;4994642;28;20680;-47
2023/08/10 01:05:11;;;;;;;1.73;1.63;;;24.10;55.60;;;;;;4996118;28;20544;-50
2023/08/10 01:08:17;;;;;;;3.20;2.40;;;24.10;55.90;;;;;;4994400;28;20449;-49
2023/08/10 01:10:55;;;;;;;4.27;2.30;;;24.10;54.70;;;;;;4993297;28;20568;-50
2023/08/10 01:13:46;;;;;;;2.37;1.90;;;24.00;54.50;;;;;;4990366;28;20421;-47
2023/08/10 01:16:14;;;;;;;2.37;2.17;;;23.90;54.20;;;;;;4982946;28;20818;-50
2023/08/10 01:18:41;;;;;;;2.77;2.37;;;23.70;53.90;;;;;;4994080;28;20493;-49
2023/08/10 01:21:25;;;;;;;2.80;2.50;;;23.50;54.20;;;;;;4997683;28;21035;-47
2023/08/10 01:23:55;;;;;;;3.83;2.07;;;23.30;54.70;;;;;;4995615;28;20446;-51
2023/08/10 01:26:21;;;;;;;2.67;1.90;;;23.10;55.70;;;;;;4989628;28;20482;-48
2023/08/10 01:28:47;;;;;;;3.67;2.40;;;23.00;55.90;;;;;;4990320;28;20442;-49
2023/08/10 01:31:13;;;;;;;2.60;2.40;;;23.00;55.80;;;;;;4986055;28;20442;-50
2023/08/10 01:33:39;;;;;;;2.83;2.13;;;22.90;55.60;;;;;;4983329;28;20221;-49
2023/08/10 01:36:05;;;;;;;3.00;2.00;;;22.80;55.60;;;;;;4990109;28;20434;-49
2023/08/10 01:38:30;;;;;;;2.33;2.13;;;22.70;55.70;;;;;;4995310;28;20218;-48
2023/08/10 01:40:56;;;;;;;2.83;2.07;;;22.70;55.90;;;;;;4992922;28;20285;-50
2023/08/10 01:43:21;;;;;;;2.83;2.63;;;22.60;56.30;;;;;;4993079;28;20673;-50
2023/08/10 01:45:50;;;;;;;4.20;3.50;;;22.50;56.70;;;;;;4992092;28;20226;-47
2023/08/10 01:48:21;;;;;;;2.63;2.43;;;22.50;56.80;;;;;;4987260;28;20208;-47
2023/08/10 01:50:50;;;;;;;3.13;2.83;;;22.60;56.70;;;;;;4983461;28;21398;-49
2023/08/10 01:53:18;;;;;;;3.37;3.07;;;22.60;56.80;;;;;;4988161;28;20454;-45
2023/08/10 01:55:44;;;;;;;2.57;2.37;;;22.60;56.60;;;;;;4978746;28;20816;-46
2023/08/10 01:58:10;;;;;;;5.90;2.03;;;22.60;56.30;;;;;;4984747;28;20461;-50
2023/08/10 02:00:37;;;;;;;2.60;2.40;;;22.60;56.20;;;;;;4988374;28;20452;-49
2023/08/10 02:03:06;;;;;;;2.50;2.30;;;22.50;56.10;;;;;;4984833;28;20253;-48
2023/08/10 02:05:33;;;;;;;3.50;2.27;;;22.50;56.30;;;;;;4983246;28;20993;-45
2023/08/10 02:07:58;;;;;;;2.10;1.90;;;22.20;56.70;;;;;;4984930;28;20457;-48
2023/08/10 02:10:24;;;;;;;2.67;2.37;;;21.90;57.50;;;;;;4989918;28;21089;-48
2023/08/10 02:12:49;;;;;;;2.87;2.63;;;21.70;58.30;;;;;;4990609;28;20249;-45
2023/08/10 02:15:15;;;;;;;2.70;2.50;;;21.60;58.60;;;;;;4990947;28;20257;-49
2023/08/10 02:17:41;;;;;;;3.43;1.97;;;21.60;58.40;;;;;;4986733;28;20205;-45
2023/08/10 02:20:14;;;;;;;2.23;2.13;;;21.60;58.60;;;;;;4987499;28;20195;-48
2023/08/10 02:22:51;;;;;;;3.10;2.40;;;21.70;58.50;;;;;;4990737;28;20226;-50
2023/08/10 02:25:17;;;;;;;2.67;2.30;;;21.40;59.20;;;;;;4989540;28;20887;-50
2023/08/10 02:27:43;;;;;;;2.67;2.47;;;21.40;58.90;;;;;;4991536;28;20473;-48
2023/08/10 02:30:11;;;;;;;2.40;2.20;;;21.40;58.70;;;;;;4989288;28;20456;-45
2023/08/10 02:32:37;;;;;;;3.93;2.63;;;21.30;59.10;;;;;;4986013;28;20209;-48
2023/08/10 02:35:04;;;;;;;2.87;2.57;;;21.40;58.80;;;;;;4991350;28;20961;-48
2023/08/10 02:37:30;;;;;;;3.03;2.70;;;21.20;59.20;;;;;;4989800;28;20548;-46
2023/08/10 02:39:55;;;;;;;4.93;3.23;;;21.10;59.60;;;;;;4991778;28;20521;-45
2023/08/10 02:42:21;;;;;;;8.20;2.60;;;21.00;59.60;;;;;;4990591;28;20198;-45
2023/08/10 02:44:49;;;;;;;4.60;2.90;;;21.00;59.80;;;;;;4989996;28;20585;-45
2023/08/10 02:47:15;;;;;;;5.00;3.40;;;21.00;59.80;;;;;;4980874;28;20190;-46
2023/08/10 02:49:40;;;;;;;3.60;3.20;;;21.10;60.00;;;;;;4990815;28;20437;-51
2023/08/10 02:52:06;;;;;;;4.83;2.60;;;21.20;59.80;;;;;;4989830;28;20492;-45
2023/08/10 02:54:32;;;;;;;3.83;3.53;;;21.30;59.50;;;;;;4991137;28;20199;-45
2023/08/10 02:56:58;;;;;;;4.37;3.87;;;21.30;59.20;;;;;;4991372;28;20205;-45
2023/08/10 02:59:23;;;;;;;4.90;3.30;;;21.30;59.40;;;;;;4993516;28;20203;-50
2023/08/10 03:01:49;;;;;;;3.47;3.20;;;21.30;59.30;;;;;;4989813;28;20446;-46
2023/08/10 03:04:14;;;;;;;5.23;3.30;;;21.30;59.30;;;;;;4990694;28;20202;-44
2023/08/10 03:06:40;;;;;;;3.90;3.10;;;21.40;59.40;;;;;;4987600;28;20703;-45
2023/08/10 03:09:06;;;;;;;3.70;3.40;;;21.40;59.20;;;;;;4993710;28;20191;-48
2023/08/10 03:11:32;;;;;;;3.23;3.03;;;21.30;59.30;;;;;;4990180;28;20191;-48
2023/08/10 03:13:58;;;;;;;2.70;2.50;;;21.30;59.30;;;;;;4993037;28;20500;-45
2023/08/10 03:16:23;;;;;;;3.13;2.93;;;21.30;59.40;;;;;;4989609;28;20272;-46
2023/08/10 03:18:49;;;;;;;3.90;3.60;;;21.30;59.40;;;;;;4987333;28;20203;-48
2023/08/10 03:21:15;;;;;;;3.60;2.83;;;21.30;59.40;;;;;;4989730;28;20210;-50
2023/08/10 03:23:41;;;;;;;3.17;2.97;;;21.40;59.50;;;;;;4991513;28;20563;-45
2023/08/10 03:26:06;;;;;;;3.87;3.47;;;21.30;59.40;;;;;;4990132;28;20496;-44
2023/08/10 03:28:32;;;;;;;3.40;3.10;;;21.00;60.10;;;;;;4987415;28;20227;-46
2023/08/10 03:30:58;;;;;;;3.63;3.07;;;21.00;60.40;;;;;;4991738;28;20209;-48
2023/08/10 03:33:23;;;;;;;4.47;4.07;;;20.90;61.20;;;;;;4986946;28;20203;-47
2023/08/10 03:35:50;;;;;;;4.13;3.73;;;20.80;61.40;;;;;;4979140;28;20633;-46
2023/08/10 03:38:15;;;;;;;6.77;4.10;;;20.90;61.60;;;;;;4979957;28;20198;-49
2023/08/10 03:40:41;;;;;;;4.10;3.23;;;20.70;61.60;;;;;;4980046;28;20532;-50
2023/08/10 03:43:07;;;;;;;3.80;3.40;;;20.40;62.40;;;;;;4982208;28;20933;-45
2023/08/10 03:45:32;;;;;;;13.67;3.73;;;19.90;64.00;;;;;;4981432;28;20226;-45
2023/08/10 03:47:58;;;;;;;4.00;3.70;;;19.50;66.80;;;;;;4981536;28;20275;-45
2023/08/10 03:50:24;;;;;;;5.20;3.70;;;19.30;67.90;;;;;;4981385;28;20198;-46
2023/08/10 03:52:50;;;;;;;6.83;4.57;;;18.80;69.80;;;;;;4980956;28;20281;-48
2023/08/10 03:55:15;;;;;;;4.53;3.73;;;18.70;70.80;;;;;;4981330;28;20584;-47
2023/08/10 03:57:41;;;;;;;4.20;3.67;;;18.90;70.30;;;;;;4982279;28;20265;-44
2023/08/10 04:00:10;;;;;;;3.90;3.60;;;19.00;69.70;;;;;;4982752;28;20608;-46
2023/08/10 04:02:35;;;;;;;3.43;3.13;;;18.90;69.90;;;;;;4979881;28;20686;-44
2023/08/10 04:05:05;;;;;;;4.00;3.70;;;18.90;69.20;;;;;;4985943;28;20572;-46
2023/08/10 04:07:37;;;;;;;5.77;3.60;;;18.70;70.20;;;;;;4985747;28;20627;-49
2023/08/10 04:10:03;;;;;;;3.97;3.67;;;18.60;70.40;;;;;;4990563;28;20446;-45
2023/08/10 04:12:32;;;;;;;3.70;3.40;;;18.60;70.70;;;;;;4987708;28;20581;-45
2023/08/10 04:14:58;;;;;;;6.53;3.73;;;18.60;70.60;;;;;;4987658;28;20446;-49
2023/08/10 04:17:23;;;;;;;4.00;3.47;;;18.70;70.70;;;;;;4981232;28;20456;-50
2023/08/10 04:19:49;;;;;;;7.80;4.00;;;18.70;69.50;;;;;;4978105;28;20205;-45
2023/08/10 04:22:15;;;;;;;11.00;3.63;;;18.70;69.90;;;;;;4983232;28;20676;-46
2023/08/10 04:24:41;;;;;;;3.70;3.27;;;18.50;70.40;;;;;;4984854;28;20187;-44
2023/08/10 04:27:06;;;;;;;4.97;3.87;;;18.40;71.40;;;;;;4978587;28;20493;-46
2023/08/10 04:29:32;;;;;;;8.83;4.00;;;18.40;71.50;;;;;;4974716;28;20195;-44
2023/08/10 04:31:57;;;;;;;4.40;3.37;;;18.30;71.90;;;;;;4980950;28;20215;-44
2023/08/10 04:34:24;;;;;;;3.73;3.40;;;18.20;72.30;;;;;;4982669;28;20603;-46
2023/08/10 04:36:49;;;;;;;3.50;3.27;;;18.20;72.20;;;;;;4980554;28;20555;-44
2023/08/10 04:39:16;;;;;;;3.40;3.10;;;18.10;72.70;;;;;;4980230;28;20442;-44
2023/08/10 04:41:41;;;;;;;3.73;2.90;;;18.00;72.70;;;;;;4979804;28;20945;-44
2023/08/10 04:44:07;;;;;;;3.90;3.07;;;17.80;74.40;;;;;;4980505;28;20433;-44
2023/08/10 04:46:34;;;;;;;3.10;2.67;;;17.70;74.60;;;;;;4980132;28;20225;-44
2023/08/10 04:48:59;;;;;;;3.97;3.40;;;17.50;75.80;;;;;;4988154;28;21032;-44
2023/08/10 04:51:25;;;;;;;3.50;3.30;;;17.40;77.00;;;;;;4985372;28;20485;-45
2023/08/10 04:53:51;;;;;;;4.33;3.13;;;17.40;77.40;;;;;;4991361;28;20585;-44
2023/08/10 04:56:17;;;;;;;3.40;3.10;;;17.70;76.30;;;;;;4987673;28;20670;-44
2023/08/10 04:58:42;;;;;;;4.00;3.70;;;17.70;75.00;;;;;;4990629;28;20197;-45
2023/08/10 05:01:09;;;;;;;3.07;2.87;;;17.70;75.70;;;;;;4986477;28;20194;-45
2023/08/10 05:03:35;;;;;;;3.60;3.30;;;17.90;74.90;;;;;;4986414;28;20218;-45
2023/08/10 05:06:02;;;;;;;3.53;3.23;;;18.10;74.30;;;;;;4992292;28;20564;-45
2023/08/10 05:08:27;;;;;;;3.60;3.30;;;18.10;74.10;;;;;;4995376;28;20537;-44
2023/08/10 05:10:53;;;;;;;2.93;2.70;;;18.10;74.00;;;;;;4993482;28;20528;-44
2023/08/10 05:13:19;;;;;;;6.93;2.90;;;18.20;73.70;;;;;;4991573;28;20220;-44
2023/08/10 05:15:44;;;;;;;5.40;3.37;;;18.30;73.90;;;;;;4992427;28;20221;-44
2023/08/10 05:18:10;;;;;;;3.20;2.90;;;18.00;76.00;;;;;;4987579;28;20226;-47
2023/08/10 05:20:37;;;;;;;3.47;3.27;;;18.20;77.40;;;;;;4991120;28;20268;-45
2023/08/10 05:23:03;;;;;;;6.10;2.80;;;18.50;75.40;;;;;;4992282;28;20650;-44
2023/08/10 05:25:28;;;;;;;5.23;3.40;;;18.80;73.30;;;;;;4992875;28;20482;-45
2023/08/10 05:27:54;;;;;;;2.87;2.67;;;18.90;72.10;;;;;;4990920;28;20226;-44
2023/08/10 05:30:20;;;;;;;3.43;3.10;;;19.10;71.40;;;;;;4992446;28;20226;-45
2023/08/10 05:32:45;;;;;;;2.30;2.20;;;19.30;70.70;;;;;;4993275;28;20757;-47
2023/08/10 05:35:12;;;;;;;3.00;2.80;;;19.50;69.20;;;;;;4992411;28;20198;-48
2023/08/10 05:37:39;;;;;;;3.57;2.50;;;19.60;68.50;;;;;;4977760;28;21506;-44
2023/08/10 05:40:12;;;;;;;3.23;3.00;;;19.70;68.40;;;;;;4983903;28;20484;-44
2023/08/10 05:42:39;;;;;;;4.10;2.67;;;19.90;68.50;;;;;;4980503;28;20538;-46
2023/08/10 05:45:08;;;;;;;2.90;2.70;;;19.80;69.40;;;;;;4980469;28;20442;-44
2023/08/10 05:47:35;;;;;;;3.60;2.80;;;19.90;68.70;;;;;;4993768;28;20446;-44
2023/08/10 05:50:01;;;;;;;2.67;2.50;;;20.20;68.30;;;;;;4984731;28;20918;-45
2023/08/10 05:52:26;;;;;;;2.10;1.97;;;20.40;67.60;;;;;;4988430;28;20600;-45
2023/08/10 05:54:52;;;;;;;3.00;2.80;;;20.60;66.00;;;;;;4995201;28;20429;-44
2023/08/10 05:57:19;;;;;;;2.57;2.37;;;20.30;66.10;;;;;;4995417;28;20300;-44
2023/08/10 05:59:45;;;;;;;2.43;2.23;;;20.40;65.80;;;;;;4988707;28;20229;-46
2023/08/10 06:02:10;;;;;;;3.10;2.80;;;20.40;66.20;;;;;;4985354;28;20457;-45
2023/08/10 06:04:36;;;;;;;2.70;2.50;;;20.50;65.60;;;;;;4994898;28;20198;-44
2023/08/10 06:07:02;;;;;;;1.80;1.70;;;20.70;65.80;;;;;;4987050;28;20254;-48
2023/08/10 06:09:28;;;;;;;2.13;2.03;;;20.80;64.70;;;;;;4990150;28;20241;-45
2023/08/10 06:11:54;;;;;;;5.63;2.70;;;20.60;65.00;;;;;;4991541;28;20194;-44
2023/08/10 06:14:20;;;;;;;2.10;2.00;;;20.60;65.10;;;;;;4994448;28;20418;-47
2023/08/10 06:16:46;;;;;;;9.87;3.23;;;20.90;65.40;;;;;;4992795;28;20285;-45
2023/08/10 06:19:11;;;;;;;1.87;1.77;;;21.00;64.00;;;;;;4989493;28;20196;-45
2023/08/10 06:21:37;;;;;;;2.07;1.97;;;21.20;64.90;;;;;;4984712;28;20226;-44
2023/08/10 06:24:06;;;;;;;2.83;2.00;;;21.50;63.80;;;;;;4987501;28;20195;-45
2023/08/10 06:26:33;;;;;;;2.17;2.07;;;21.70;62.40;;;;;;4978758;28;20222;-45
2023/08/10 06:28:59;;;;;;;2.20;2.10;;;21.80;62.40;;;;;;4989390;28;20964;-45
2023/08/10 06:31:25;;;;;;;2.47;2.27;;;22.00;61.40;;;;;;4982900;28;20438;-48
2023/08/10 06:33:50;;;;;;;2.23;1.60;;;22.10;60.90;;;;;;4991550;28;20190;-44
2023/08/10 06:36:16;;;;;;;3.27;1.77;;;22.30;60.90;;;;;;4987794;28;20194;-44
2023/08/10 06:38:42;;;;;;;2.20;2.03;;;22.50;60.20;;;;;;4986621;28;20202;-44
2023/08/10 06:41:07;;;;;;;2.90;2.70;;;22.60;59.60;;;;;;4986415;28;20805;-49
2023/08/10 06:43:33;;;;;;;2.07;1.70;;;22.70;59.00;;;;;;4983009;28;20190;-46
2023/08/10 06:45:59;;;;;;;2.70;2.10;;;22.50;58.80;;;;;;5000131;28;20599;-45
2023/08/10 06:48:24;;;;;;;2.40;2.00;;;22.20;59.10;;;;;;4983246;28;20207;-46
2023/08/10 06:50:50;;;;;;;3.33;3.03;;;21.70;59.80;;;;;;4976786;28;20214;-47
2023/08/10 06:53:16;;;;;;;2.00;1.90;;;21.30;61.50;;;;;;4987606;28;20195;-50
2023/08/10 06:55:42;;;;;;;2.40;2.10;;;20.80;65.20;;;;;;4990473;28;20881;-49
2023/08/10 06:58:08;;;;;;;4.60;1.83;;;21.10;65.20;;;;;;4993871;28;20658;-48
2023/08/10 07:00:34;;;;;;;3.43;2.50;;;21.40;63.80;;;;;;4983518;28;20449;-48
2023/08/10 07:03:00;;;;;;;3.40;3.10;;;21.60;61.20;;;;;;4993279;28;20453;-50
2023/08/10 07:05:26;;;;;;;3.63;3.30;;;21.40;61.80;;;;;;4988771;28;20482;-49
2023/08/10 07:07:52;;;;;;;2.87;2.67;;;21.50;62.40;;;;;;4993894;28;20304;-50
2023/08/10 07:10:18;;;;;;;2.27;2.13;;;21.70;61.50;;;;;;4993611;28;20936;-50
2023/08/10 07:12:44;;;;;;;3.07;2.20;;;21.80;61.70;;;;;;4993251;28;20422;-49
2023/08/10 07:15:10;;;;;;;4.07;2.80;;;21.90;61.60;;;;;;4991491;28;20448;-49
2023/08/10 07:17:35;;;;;;;3.10;2.80;;;22.00;60.80;;;;;;4990329;28;20290;-47
2023/08/10 07:20:04;;;;;;;4.57;2.27;;;22.10;60.20;;;;;;4989342;28;20501;-50
2023/08/10 07:22:29;;;;;;;2.23;2.03;;;22.20;60.50;;;;;;4993261;28;20198;-49
2023/08/10 07:24:55;;;;;;;3.00;2.70;;;22.20;60.40;;;;;;4993659;28;20509;-49
2023/08/10 07:27:20;;;;;;;2.73;2.53;;;22.30;59.90;;;;;;4992564;28;20222;-51
2023/08/10 07:29:46;;;;;;;2.80;2.60;;;22.30;59.90;;;;;;4991128;28;20278;-49
2023/08/10 07:32:14;;;;;;;2.90;2.50;;;21.80;60.50;;;;;;4991355;28;20242;-44
2023/08/10 07:34:39;;;;;;;2.93;2.60;;;21.50;62.40;;;;;;4993522;28;20202;-45
2023/08/10 07:37:05;;;;;;;2.63;2.43;;;21.80;62.40;;;;;;4992988;28;20573;-48
2023/08/10 07:39:30;;;;;;;3.27;2.63;;;21.80;60.90;;;;;;4991379;28;20214;-44
2023/08/10 07:41:56;;;;;;;3.40;3.10;;;21.90;61.50;;;;;;4989899;28;20278;-45
2023/08/10 07:44:22;;;;;;;3.40;3.10;;;22.20;61.00;;;;;;4993691;28;20202;-44
2023/08/10 07:46:48;;;;;;;4.53;3.10;;;22.50;60.30;;;;;;4992753;28;20264;-49
2023/08/10 07:49:17;;;;;;;2.50;2.30;;;22.70;59.70;;;;;;4993065;28;20257;-50
2023/08/10 07:51:47;;;;;;;2.27;2.07;;;22.80;59.70;;;;;;4992562;28;20437;-50
2023/08/10 07:54:13;;;;;;;3.43;3.20;;;23.00;59.20;;;;;;4986870;28;20449;-51
2023/08/10 07:56:39;;;;;;;2.63;2.43;;;23.20;58.90;;;;;;4992382;28;20760;-50
2023/08/10 07:59:05;;;;;;;1.90;1.70;;;22.90;58.80;;;;;;4992388;28;20433;-48
2023/08/10 08:01:30;;;;;;;4.37;2.90;;;23.00;59.50;;;;;;4991984;28;20669;-49
2023/08/10 08:03:56;;;;;;;2.50;2.30;;;23.20;59.10;;;;;;4990206;28;20433;-49
2023/08/10 08:06:22;;;;;;;2.80;2.60;;;23.40;58.60;;;;;;4992668;28;20249;-49
2023/08/10 08:08:47;;;;;;;2.70;2.50;;;23.10;58.90;;;;;;4992822;28;20253;-50
2023/08/10 08:11:13;;;;;;;2.50;2.30;;;23.20;59.10;;;;;;4992554;28;20666;-49
2023/08/10 08:13:38;;;;;;;3.07;2.80;;;23.40;58.90;;;;;;4991132;28;20198;-51
2023/08/10 08:16:04;;;;;;;2.50;2.30;;;23.30;58.70;;;;;;4989674;28;20206;-48
2023/08/10 08:18:44;;;;;;;2.30;2.20;;;23.20;58.20;;;;;;4992187;28;20190;-47
2023/08/10 08:21:12;;;;;;;2.70;2.50;;;23.30;58.60;;;;;;4992751;28;20449;-50
2023/08/10 08:23:38;;;;;;;3.90;2.17;;;23.50;58.40;;;;;;4992806;28;20933;-46
2023/08/10 08:26:04;;;;;;;2.60;2.40;;;23.60;58.40;;;;;;4985632;28;20584;-50
2023/08/10 08:28:29;;;;;;;3.90;2.07;;;23.70;58.00;;;;;;4991691;28;20241;-48
2023/08/10 08:30:55;;;;;;;1.80;1.70;;;23.90;57.50;;;;;;4992323;28;20435;-49
2023/08/10 08:33:21;;;;;;;2.57;2.37;;;24.00;57.20;;;;;;4992798;28;20278;-50
2023/08/10 08:35:47;;;;;;;2.20;2.10;;;24.10;57.10;;;;;;4983597;28;20194;-48
2023/08/10 08:38:17;;;;;;;2.40;2.20;;;23.90;56.60;;;;;;4992605;28;20187;-47
2023/08/10 08:40:43;;;;;;;4.07;2.17;;;23.70;57.10;;;;;;4994755;28;20441;-50
2023/08/10 08:43:10;;;;;;;2.77;2.57;;;23.70;56.90;;;;;;4996591;28;20438;-48
2023/08/10 08:45:36;;;;;;;2.90;2.40;;;23.40;57.60;;;;;;4994471;28;20594;-49
2023/08/10 08:48:05;;;;;;;2.63;2.10;;;23.70;58.20;;;;;;4994728;28;20484;-50
2023/08/10 08:50:31;;;;;;;2.80;2.60;;;24.10;57.20;;;;;;4995777;28;20550;-46
2023/08/10 08:52:58;;;;;;;2.40;2.20;;;24.40;56.30;;;;;;4996457;28;20434;-47
2023/08/10 08:55:24;;;;;;;2.33;2.13;;;24.50;56.20;;;;;;4994390;28;20681;-49
2023/08/10 08:57:50;;;;;;;2.20;2.00;;;24.70;55.70;;;;;;4994586;28;20466;-48
2023/08/10 09:00:16;;;;;;;3.20;2.20;;;24.80;55.70;;;;;;4996489;28;20206;-46
2023/08/10 09:02:41;;;;;;;2.77;2.57;;;24.90;55.10;;;;;;4995747;28;20740;-49
2023/08/10 09:05:08;;;;;;;2.90;2.47;;;25.20;55.40;;;;;;4996322;28;20186;-46
2023/08/10 09:07:34;;;;;;;2.77;2.20;;;25.30;54.40;;;;;;4993752;28;20218;-47
2023/08/10 09:10:00;;;;;;;2.97;2.67;;;25.30;54.10;;;;;;4993374;28;20449;-48
2023/08/10 09:12:29;;;;;;;2.27;2.17;;;25.50;54.40;;;;;;4995557;28;20835;-47
2023/08/10 09:15:03;;;;;;;2.50;2.23;;;25.70;53.60;;;;;;4995859;28;20433;-50
2023/08/10 09:17:30;;;;;;;5.53;2.60;;;26.00;53.20;;;;;;4995356;28;20565;-47
2023/08/10 09:19:55;;;;;;;2.40;2.20;;;26.00;52.60;;;;;;4994480;28;20441;-46
2023/08/10 09:22:34;;;;;;;4.50;3.13;;;25.90;53.70;;;;;;4993856;28;20425;-45
2023/08/10 09:25:01;;;;;;;2.10;2.00;;;26.30;53.20;;;;;;4995740;28;20240;-49
2023/08/10 09:27:28;;;;;;;2.53;2.33;;;26.60;53.30;;;;;;4995279;28;20580;-47
2023/08/10 09:29:59;;;;;;;4.07;2.70;;;26.60;51.90;;;;;;4991954;28;20436;-49
2023/08/10 09:32:25;;;;;;;2.57;2.37;;;27.00;52.00;;;;;;4993596;28;20446;-47
2023/08/10 09:34:51;;;;;;;5.80;2.70;;;27.10;50.40;;;;;;4995604;28;20422;-46
2023/08/10 09:37:17;;;;;;;2.17;2.00;;;26.90;50.10;;;;;;4995130;28;20230;-45
2023/08/10 09:39:43;;;;;;;3.60;2.73;;;26.70;50.50;;;;;;4995959;28;20445;-50
2023/08/10 09:42:09;;;;;;;5.30;2.20;;;26.90;50.90;;;;;;4993583;28;20198;-50
2023/08/10 09:44:46;;;;;;;2.40;2.20;;;27.20;50.40;;;;;;4995500;28;20983;-50
2023/08/10 09:47:13;;;;;;;2.20;2.07;;;27.50;49.90;;;;;;4994964;28;20284;-48
2023/08/10 09:50:03;;;;;;;2.97;2.30;;;27.80;49.60;;;;;;4993964;28;20425;-48
2023/08/10 09:52:29;;;;;;;4.27;2.10;;;28.10;48.60;;;;;;4991165;28;20450;-46
2023/08/10 09:54:56;;;;;;;2.70;2.50;;;28.30;48.60;;;;;;4995488;28;20430;-47
2023/08/10 09:57:23;;;;;;;4.23;2.50;;;28.60;49.70;;;;;;4991194;28;20442;-46
2023/08/10 09:59:51;;;;;;;2.27;2.07;;;28.80;46.70;;;;;;4995434;28;20442;-48
2023/08/10 10:02:17;;;;;;;2.20;2.10;;;29.00;47.20;;;;;;4993389;28;20426;-48
2023/08/10 10:04:44;;;;;;;4.17;2.43;;;29.20;47.10;;;;;;4995223;28;20422;-46
2023/08/10 10:07:13;;;;;;;2.50;2.30;;;29.20;46.30;;;;;;4992980;28;20489;-49
2023/08/10 10:09:43;;;;;;;2.70;2.50;;;29.40;45.70;;;;;;4995216;28;20421;-47
2023/08/10 10:12:13;;;;;;;4.77;2.60;;;29.40;45.60;;;;;;4995035;28;20804;-48
2023/08/10 10:14:43;;;;;;;2.60;2.33;;;29.50;44.80;;;;;;4994176;28;20434;-48
2023/08/10 10:17:14;;;;;;;2.50;2.30;;;29.00;45.20;;;;;;4992110;28;20441;-50
2023/08/10 10:19:40;;;;;;;2.50;2.30;;;29.00;47.10;;;;;;4995254;28;20795;-46
2023/08/10 10:22:07;;;;;;;1.80;1.70;;;29.40;47.10;;;;;;4994363;28;20422;-46
2023/08/10 10:24:34;;;;;;;2.63;2.43;;;29.80;45.40;;;;;;4994787;28;20425;-51
2023/08/10 10:27:09;;;;;;;2.60;2.40;;;30.10;45.30;;;;;;4993807;28;20537;-47
2023/08/10 10:29:37;;;;;;;2.30;2.13;;;30.50;45.00;;;;;;4992023;28;20449;-49
2023/08/10 10:32:22;;;;;;;2.37;2.20;;;30.70;42.90;;;;;;4994172;28;20446;-47
2023/08/10 10:34:50;;;;;;;2.20;2.10;;;30.80;42.30;;;;;;4994754;28;20791;-48
2023/08/10 10:37:16;;;;;;;2.40;2.20;;;31.00;42.40;;;;;;4994104;28;20510;-51
2023/08/10 10:39:45;;;;;;;2.63;2.33;;;31.20;42.50;;;;;;4993271;28;20441;-45
2023/08/10 10:42:11;;;;;;;2.47;2.33;;;31.50;40.70;;;;;;4990701;28;20559;-49
2023/08/10 10:45:03;;;;;;;2.43;2.23;;;31.30;40.80;;;;;;4994400;28;20437;-47
2023/08/10 10:47:40;;;;;;;2.03;1.70;;;31.60;41.10;;;;;;4993539;28;20504;-50
2023/08/10 10:50:23;;;;;;;2.27;2.17;;;31.70;40.90;;;;;;4993624;28;20448;-45
2023/08/10 10:52:58;;;;;;;2.00;1.90;;;31.90;39.20;;;;;;4993947;28;20453;-48
2023/08/10 10:55:25;;;;;;;2.47;2.27;;;32.00;40.60;;;;;;4993958;28;20434;-47
2023/08/10 10:57:52;;;;;;;2.37;2.27;;;32.10;38.90;;;;;;4994096;28;20968;-47
2023/08/10 11:00:20;;;;;;;2.20;2.10;;;32.00;38.90;;;;;;4991420;28;20537;-47
2023/08/10 11:02:47;;;;;;;2.50;2.30;;;32.20;38.50;;;;;;4989344;28;20500;-46
2023/08/10 11:05:14;;;;;;;2.37;2.17;;;32.20;37.90;;;;;;4992953;28;20446;-45
2023/08/10 11:07:45;;;;;;;2.43;2.23;;;32.20;37.00;;;;;;4993479;28;20445;-46
2023/08/10 11:10:11;;;;;;;2.57;2.37;;;32.30;36.90;;;;;;4992766;28;20433;-47
2023/08/10 11:12:39;;;;;;;2.30;2.10;;;32.30;36.70;;;;;;4991170;28;20461;-47
2023/08/10 11:15:09;;;;;;;2.87;1.80;;;32.20;36.40;;;;;;4985114;28;20596;-46
2023/08/10 11:17:38;;;;;;;2.33;2.13;;;32.20;35.80;;;;;;4984678;28;20511;-48
2023/08/10 11:20:21;;;;;;;1.97;1.87;;;32.30;35.60;;;;;;4992174;28;21024;-48
2023/08/10 11:22:47;;;;;;;2.10;2.00;;;32.40;33.00;;;;;;4986679;28;20445;-47
2023/08/10 11:25:29;;;;;;;2.37;2.20;;;32.30;33.90;;;;;;4989081;28;20437;-48
2023/08/10 11:27:56;;;;;;;2.20;2.10;;;31.80;34.70;;;;;;4993597;28;20487;-49
2023/08/10 11:30:23;;;;;;;3.27;2.50;;;31.70;34.70;;;;;;4998469;28;20422;-48
2023/08/10 11:32:52;;;;;;;2.60;2.13;;;32.00;33.90;;;;;;4988647;28;20445;-49
2023/08/10 11:35:23;;;;;;;3.43;2.10;;;32.30;31.20;;;;;;4990990;28;20433;-50
2023/08/10 11:37:49;;;;;;;2.27;2.07;;;32.50;30.90;;;;;;4991401;28;20491;-48
2023/08/10 11:40:23;;;;;;;2.30;2.10;;;32.70;31.70;;;;;;4993468;28;20433;-48
2023/08/10 11:43:04;;;;;;;2.10;1.83;;;32.90;30.30;;;;;;4992578;28;20437;-48
2023/08/10 11:45:30;;;;;;;4.47;2.20;;;32.90;31.20;;;;;;4993037;28;20830;-51
2023/08/10 11:47:57;;;;;;;1.93;1.83;;;32.90;31.40;;;;;;4990566;28;20454;-48
2023/08/10 11:50:26;;;;;;;2.30;2.10;;;32.80;30.50;;;;;;4993006;28;20469;-48
2023/08/10 11:52:55;;;;;;;1.97;1.83;;;32.80;31.30;;;;;;4993076;28;20492;-47
2023/08/10 11:55:21;;;;;;;1.80;1.70;;;32.80;30.00;;;;;;4994217;28;20446;-51
2023/08/10 11:57:51;;;;;;;2.20;2.10;;;32.70;30.10;;;;;;4992451;28;20905;-48
2023/08/10 12:00:24;;;;;;;2.87;2.10;;;32.50;29.20;;;;;;4986543;28;20437;-47
2023/08/10 12:03:04;;;;;;;2.13;1.93;;;32.60;29.10;;;;;;4992864;28;20441;-48
2023/08/10 12:05:50;;;;;;;2.00;1.90;;;32.70;27.90;;;;;;4990555;28;20845;-46
2023/08/10 12:08:20;;;;;;;2.03;1.80;;;32.80;29.80;;;;;;4992833;28;20811;-50
2023/08/10 12:10:51;;;;;;;2.43;2.23;;;32.80;29.80;;;;;;4992018;28;20480;-48
2023/08/10 12:13:18;;;;;;;1.93;1.83;;;32.90;30.20;;;;;;4992092;28;20556;-48
2023/08/10 12:15:48;;;;;;;2.40;2.10;;;33.10;29.90;;;;;;5005949;28;20555;-47
2023/08/10 12:18:15;;;;;;;2.60;2.40;;;33.40;29.20;;;;;;4995207;28;20426;-47
2023/08/10 12:20:43;;;;;;;2.00;1.90;;;33.50;29.40;;;;;;4997602;28;20445;-49
2023/08/10 12:23:09;;;;;;;2.60;2.43;;;33.70;30.00;;;;;;4992434;28;20448;-46
2023/08/10 12:25:35;;;;;;;2.10;2.00;;;33.80;29.00;;;;;;4996273;28;20532;-49
2023/08/10 12:28:01;;;;;;;1.90;1.80;;;33.70;27.70;;;;;;4996282;28;20849;-47
2023/08/10 12:30:26;;;;;;;2.43;2.23;;;33.60;28.50;;;;;;4989831;28;20471;-47
2023/08/10 12:32:52;;;;;;;2.53;2.33;;;33.50;29.20;;;;;;4987797;28;20198;-47
2023/08/10 12:35:18;;;;;;;2.30;2.10;;;33.50;29.30;;;;;;4986178;28;21950;-46
2023/08/10 12:37:46;;;;;;;3.77;2.60;;;33.60;28.30;;;;;;4994372;28;20206;-48
2023/08/10 12:40:12;;;;;;;2.13;1.97;;;33.60;28.40;;;;;;4988839;28;20191;-46
2023/08/10 12:42:38;;;;;;;1.87;1.77;;;33.70;28.10;;;;;;4996308;28;20926;-49
2023/08/10 12:45:05;;;;;;;2.20;2.00;;;33.80;28.20;;;;;;4994703;28;20646;-47
2023/08/10 12:47:30;;;;;;;2.27;2.07;;;33.80;28.10;;;;;;4995850;28;20549;-47
2023/08/10 12:49:56;;;;;;;5.63;2.27;;;33.90;28.10;;;;;;4995294;28;20525;-48